Home   Weather   City of Ilwaco   Past weeks
Flag for USA

Past Weather in City of Ilwaco, Washington, USA — Yesterday and Last 2 Weeks

Currently: 55 °F. Overcast. (Weather station: Astoria Regional Airport, USA). See more current weather

Past Weather in City of Ilwaco — Graph

°F

City of Ilwaco Temperature Yesterday

Maximum temperature yesterday: 61 °F (at 3:55 pm)
Minimum temperature yesterday: 52 °F (at 8:42 am)
Average temperature yesterday: 55 °F

High & Low Weather Summary for the Past Weeks

 TemperatureHumidityPressure
High79 °F (Sep 25, 3:55 pm)100% (Sep 14, 4:26 am)30.23 "Hg (Sep 14, 4:26 am)
Low47 °F (Sep 20, 5:55 am)37% (Sep 18, 2:55 pm)29.70 "Hg (Sep 18, 3:55 pm)
Average58 °F83%29.98 "Hg
* Reported Sep 13 1:35 am — Sep 28 1:55 am, City of Ilwaco. Weather by CustomWeather, © 2022

Note: Actual official high and low records may vary slightly from our data, if they occured in-between our weather recording intervals... More about our weather records

City of Ilwaco Weather History for the Previous 24 Hours

Scroll right to see more
 ConditionsComfort  
Time TempWeatherWind HumidityBarometerVisibility
1:55 am
Wed, Sep 28
55 °FOvercast.5 mph87%29.93 "Hg10 mi
1:20 am54 °FPassing clouds.3 mph86%29.93 "Hg10 mi
11:55 pm
Tue, Sep 27
55 °FOvercast.No wind87%29.94 "Hg10 mi
11:12 pm54 °FPassing clouds.6 mph86%29.95 "Hg10 mi
9:55 pm56 °FPassing clouds.5 mph81%29.95 "Hg10 mi
8:55 pm56 °FClear.5 mph81%29.95 "Hg10 mi
8:36 pm56 °FPassing clouds.6 mph84%29.95 "Hg10 mi
7:55 pm57 °FOvercast.10 mph83%29.94 "Hg10 mi
6:55 pm57 °FOvercast.16 mph83%29.93 "Hg10 mi
6:23 pm58 °FPartly sunny.13 mph81%29.94 "Hg10 mi
5:55 pm58 °FSunny.15 mph81%29.93 "Hg10 mi
4:43 pm59 °FPartly sunny.12 mph81%29.94 "Hg10 mi
3:55 pm61 °FPassing clouds.15 mph75%29.94 "Hg10 mi
3:03 pm60 °FScattered clouds.14 mph78%29.95 "Hg10 mi
1:55 pm58 °FOvercast.12 mph84%29.95 "Hg10 mi
12:55 pm59 °FOvercast.9 mph87%29.94 "Hg10 mi
11:55 am57 °FLow clouds.5 mph93%29.94 "HgN/A
11:00 am55 °FFog.3 mph96%29.95 "Hg3 mi
10:22 am53 °FFog.8 mph100%29.95 "Hg2 mi
9:55 am53 °FFog.6 mph96%29.94 "Hg2 mi
9:31 am53 °FFog.8 mph96%29.93 "Hg2 mi
9:08 am52 °FFog.5 mph100%29.93 "Hg1 mi
8:42 am52 °FFog.7 mph100%29.91 "Hg2 mi
7:42 am53 °FFog.3 mph96%29.90 "Hg1 mi
7:18 am53 °FFog.3 mph96%29.90 "Hg2 mi
6:37 am53 °FFog.3 mph100%29.90 "Hg2 mi
6:21 am53 °FFog.3 mph100%29.90 "Hg1 mi
6:04 am53 °FFog.3 mph100%29.90 "Hg2 mi
5:32 am54 °FFog.3 mph97%29.90 "Hg2 mi
4:55 am54 °FFog.No wind97%29.90 "Hg4 mi
4:11 am54 °FFog.No wind100%29.92 "Hg2 mi
3:55 am54 °FFog.No wind100%29.92 "Hg3 mi
3:44 am54 °FFog.5 mph100%29.93 "Hg1 mi
Weather by CustomWeather, © 2022

See weather overview